Main page
METAR-TAF:

METAR-TAF

Airports :

Vlissingen, Netherlands

latitude: 51-27N, longitude: 3-36E, elevation: 10 m

Current weather observation

The report was made 24 minutes ago, at 22:25 UTC
Wind 13 kt from the Southeast
Temperature 6°C
Humidity 87%
Pressure 1003 hPa
Visibility: 9000 m

METAR: EHFS 212225Z AUTO 14013KT 9000 NSC 06/04 Q1003 W///H///

Time: 23:49 (22:49 UTC)


TAF: missing

Weather observations and forecasts of more than 4000 airports (METAR and TAF reports).

The available stations are represented by yellow and red dots on the map.

Hover mouse over dot to see the name of the station.

Then click to see weather observations and forecasts.

To change the map : click on the green buttons with a black cross to zoom in, on the green button with a dash to zoom out, or on the green arrows for adjacent maps.


METAR-TAF: